Time;durP1;ratioP1;P1;durP2;ratioP2;P2;SDS_P1;SDS_P2;PMS_P1;PMS_P2;Temp;Humidity;BMP_temperature;BMP_pressure;BME280_temperature;BME280_humidity;BME280_pressure;Samples;Min_cycle;Max_cycle;Signal;HPM_P1;HPM_P2
2022/06/22 00:51:36;;;;;;;4.53;1.45;;;;;;;;;;4990358;28;20105;-87
2022/06/22 00:54:05;;;;;;;3.67;1.25;;;;;;;;;;4965403;28;20133;-88
2022/06/22 00:56:41;;;;;;;3.28;1.70;;;;;;;;;;4974927;28;20068;-87
2022/06/22 00:59:52;;;;;;;2.95;1.23;;;;;;;;;;4974490;28;20041;-86
2022/06/22 01:02:26;;;;;;;2.58;1.42;;;;;;;;;;4939624;28;20483;-86
2022/06/22 01:04:58;;;;;;;2.78;1.25;;;;;;;;;;4936085;28;20042;-87
2022/06/22 01:07:31;;;;;;;2.67;1.40;;;;;;;;;;4945010;28;20046;-85
2022/06/22 01:10:20;;;;;;;3.10;1.50;;;;;;;;;;5007385;28;20034;-86
2022/06/22 01:12:55;;;;;;;3.17;1.50;;;;;;;;;;4992212;28;20092;-88
2022/06/22 01:15:36;;;;;;;3.50;1.60;;;;;;;;;;4989188;28;20502;-86
2022/06/22 01:18:26;;;;;;;3.55;1.70;;;;;;;;;;4968008;28;20126;-86
2022/06/22 01:21:18;;;;;;;4.00;1.70;;;;;;;;;;4981271;28;20034;-86
2022/06/22 01:24:08;;;;;;;3.47;1.58;;;;;;;;;;4994548;28;20033;-85
2022/06/22 01:26:42;;;;;;;3.22;1.40;;;;;;;;;;5000516;28;20033;-85
2022/06/22 01:29:12;;;;;;;3.30;1.60;;;;;;;;;;4993535;28;20459;-85
2022/06/22 01:31:59;;;;;;;3.33;1.58;;;;;;;;;;4992454;28;20040;-86
2022/06/22 01:34:25;;;;;;;2.92;1.70;;;;;;;;;;4994577;28;20497;-85
2022/06/22 01:36:51;;;;;;;3.88;1.92;;;;;;;;;;4983567;28;20030;-86
2022/06/22 01:39:17;;;;;;;4.50;1.65;;;;;;;;;;5013741;28;20072;-86
2022/06/22 01:41:49;;;;;;;4.07;1.73;;;;;;;;;;4996132;28;20037;-85
2022/06/22 01:44:25;;;;;;;3.63;1.70;;;;;;;;;;4977327;28;20432;-85
2022/06/22 01:46:50;;;;;;;3.72;1.75;;;;;;;;;;4967774;28;20140;-85
2022/06/22 01:49:28;;;;;;;2.95;1.60;;;;;;;;;;4964066;28;20434;-86
2022/06/22 01:52:01;;;;;;;4.90;1.70;;;;;;;;;;4944037;28;20035;-86
2022/06/22 01:54:35;;;;;;;3.50;1.75;;;;;;;;;;4990373;28;20487;-87
2022/06/22 01:57:11;;;;;;;4.38;1.77;;;;;;;;;;4961575;28;20031;-86
2022/06/22 01:59:55;;;;;;;3.58;1.70;;;;;;;;;;4958984;28;20536;-86
2022/06/22 02:02:29;;;;;;;4.53;1.80;;;;;;;;;;4951230;28;20045;-86
2022/06/22 02:05:09;;;;;;;4.30;1.65;;;;;;;;;;4961372;28;20035;-86
2022/06/22 02:07:45;;;;;;;3.45;1.83;;;;;;;;;;4952444;28;20113;-84
2022/06/22 02:10:39;;;;;;;3.45;1.50;;;;;;;;;;4989544;28;20093;-86
2022/06/22 02:13:42;;;;;;;3.53;2.17;;;;;;;;;;4970569;28;20035;-86
2022/06/22 02:16:24;;;;;;;4.45;2.28;;;;;;;;;;4956705;28;20038;-86
2022/06/22 02:18:51;;;;;;;3.47;2.22;;;;;;;;;;4956094;28;20035;-88
2022/06/22 02:21:19;;;;;;;3.75;1.95;;;;;;;;;;4977858;28;20390;-87
2022/06/22 02:23:48;;;;;;;4.75;1.80;;;;;;;;;;4950019;28;20042;-87
2022/06/22 02:26:25;;;;;;;4.57;1.85;;;;;;;;;;4972285;28;20401;-86
2022/06/22 02:28:50;;;;;;;3.28;1.80;;;;;;;;;;4974600;28;20557;-86
2022/06/22 02:31:18;;;;;;;3.00;1.65;;;;;;;;;;4989227;28;20174;-86
2022/06/22 02:33:46;;;;;;;7.72;1.85;;;;;;;;;;4956149;28;20429;-86
2022/06/22 02:36:13;;;;;;;3.50;1.80;;;;;;;;;;4924824;28;20038;-86
2022/06/22 02:38:42;;;;;;;3.58;1.90;;;;;;;;;;4956676;28;20038;-86
2022/06/22 02:46:40;;;;;;;4.20;2.00;;;;;;;;;;4963028;28;20092;-88
2022/06/22 02:49:12;;;;;;;3.50;1.95;;;;;;;;;;4976400;28;20125;-88
2022/06/22 02:51:42;;;;;;;3.72;2.15;;;;;;;;;;4994641;28;20041;-88
2022/06/22 02:54:18;;;;;;;3.63;2.10;;;;;;;;;;4995342;28;20042;-87
2022/06/22 02:56:44;;;;;;;3.17;1.90;;;;;;;;;;4990023;28;20061;-87
2022/06/22 02:59:13;;;;;;;3.45;1.88;;;;;;;;;;5001572;28;20046;-87
2022/06/22 03:01:39;;;;;;;3.97;1.98;;;;;;;;;;4981589;28;20039;-87
2022/06/22 03:04:10;;;;;;;3.00;1.67;;;;;;;;;;4962782;28;20117;-88
2022/06/22 03:06:38;;;;;;;3.88;2.00;;;;;;;;;;4996521;28;20057;-88
2022/06/22 03:09:06;;;;;;;;;;;;;;;;;;4980129;28;20503;-86
2022/06/22 03:11:33;;;;;;;4.50;2.13;;;;;;;;;;4990741;28;19914;-87
2022/06/22 03:14:08;;;;;;;6.07;2.28;;;;;;;;;;4975631;28;20034;-86
2022/06/22 03:16:38;;;;;;;3.17;1.73;;;;;;;;;;4969030;28;20042;-85
2022/06/22 03:19:12;;;;;;;4.25;1.95;;;;;;;;;;4983040;28;20501;-84
2022/06/22 03:21:40;;;;;;;5.18;1.90;;;;;;;;;;5007088;28;20033;-85
2022/06/22 03:24:46;;;;;;;3.90;2.00;;;;;;;;;;4998729;28;20047;-86
2022/06/22 03:27:19;;;;;;;3.58;1.77;;;;;;;;;;4992839;28;20416;-86
2022/06/22 03:29:50;;;;;;;4.05;2.05;;;;;;;;;;4992557;28;20033;-86
2022/06/22 03:32:24;;;;;;;3.63;1.88;;;;;;;;;;4991820;28;20448;-85
2022/06/22 03:35:13;;;;;;;3.97;1.80;;;;;;;;;;4975942;28;20481;-86
2022/06/22 03:37:38;;;;;;;3.50;1.83;;;;;;;;;;4989720;28;20061;-85
2022/06/22 03:40:10;;;;;;;4.03;2.13;;;;;;;;;;5008420;28;20059;-88
2022/06/22 03:42:40;;;;;;;3.22;1.80;;;;;;;;;;4988851;28;20030;-84
2022/06/22 03:45:08;;;;;;;3.72;1.70;;;;;;;;;;4977056;28;20125;-85
2022/06/22 03:47:43;;;;;;;3.47;1.63;;;;;;;;;;4979077;28;20054;-83
2022/06/22 03:50:14;;;;;;;4.30;1.92;;;;;;;;;;4952184;28;20122;-83
2022/06/22 03:52:48;;;;;;;3.58;1.65;;;;;;;;;;4991498;28;20027;-85
2022/06/22 03:55:26;;;;;;;3.85;1.73;;;;;;;;;;4987622;28;20490;-85
2022/06/22 03:57:54;;;;;;;3.67;1.75;;;;;;;;;;4987800;28;20106;-85
2022/06/22 04:00:20;;;;;;;3.88;2.05;;;;;;;;;;4971991;28;20407;-84
2022/06/22 04:02:46;;;;;;;4.15;1.60;;;;;;;;;;4969670;28;20027;-84
2022/06/22 04:05:19;;;;;;;3.72;2.08;;;;;;;;;;4970925;28;20049;-84
2022/06/22 04:07:45;;;;;;;3.78;1.63;;;;;;;;;;4969395;28;20045;-84
2022/06/22 04:10:34;;;;;;;3.92;1.95;;;;;;;;;;4988443;28;20280;-84
2022/06/22 04:13:00;;;;;;;3.30;1.80;;;;;;;;;;4973302;28;20046;-84
2022/06/22 04:15:34;;;;;;;5.25;2.10;;;;;;;;;;4968466;28;20452;-85
2022/06/22 04:18:06;;;;;;;4.35;1.88;;;;;;;;;;4968830;28;20114;-85
2022/06/22 04:20:52;;;;;;;4.50;1.80;;;;;;;;;;4957264;28;20078;-85
2022/06/22 04:23:23;;;;;;;5.23;2.10;;;;;;;;;;4990199;28;20038;-85
2022/06/22 04:25:50;;;;;;;4.93;1.70;;;;;;;;;;4951124;28;20039;-86
2022/06/22 04:28:17;;;;;;;3.67;1.70;;;;;;;;;;4937804;28;20430;-84
2022/06/22 04:30:47;;;;;;;4.10;1.90;;;;;;;;;;4973384;28;20034;-84
2022/06/22 04:33:18;;;;;;;3.63;1.60;;;;;;;;;;4974929;28;20498;-85
2022/06/22 04:35:52;;;;;;;3.72;1.90;;;;;;;;;;4955684;28;20042;-85
2022/06/22 04:38:26;;;;;;;3.28;1.70;;;;;;;;;;4969113;28;20406;-84
2022/06/22 04:41:07;;;;;;;3.00;1.83;;;;;;;;;;4970625;28;20543;-84
2022/06/22 04:43:33;;;;;;;2.95;1.52;;;;;;;;;;4973218;28;20054;-85
2022/06/22 04:45:58;;;;;;;4.28;1.73;;;;;;;;;;4956788;28;20038;-88
2022/06/22 04:48:30;;;;;;;3.88;1.70;;;;;;;;;;4953587;28;20184;-87
2022/06/22 04:51:02;;;;;;;3.20;1.60;;;;;;;;;;5003901;28;20037;-89
2022/06/22 04:53:29;;;;;;;2.95;1.60;;;;;;;;;;4988460;28;20460;-88
2022/06/22 04:55:55;;;;;;;;;;;;;;;;;;5001876;28;20145;-87
2022/06/22 04:58:46;;;;;;;9.45;2.00;;;;;;;;;;5007049;28;20353;-86
2022/06/22 05:01:24;;;;;;;3.05;1.67;;;;;;;;;;4994008;28;20611;-88
2022/06/22 05:03:55;;;;;;;2.70;1.60;;;;;;;;;;4988248;28;20117;-88
2022/06/22 05:06:26;;;;;;;3.95;1.90;;;;;;;;;;4962505;28;20073;-89
2022/06/22 05:08:56;;;;;;;2.85;1.55;;;;;;;;;;4966925;28;20378;-89
2022/06/22 05:11:24;;;;;;;3.00;1.70;;;;;;;;;;4961241;28;20042;-84
2022/06/22 05:13:52;;;;;;;3.75;1.75;;;;;;;;;;4985469;28;20413;-86
2022/06/22 05:16:22;;;;;;;2.90;1.45;;;;;;;;;;4949157;28;20038;-86
2022/06/22 05:18:49;;;;;;;2.65;1.38;;;;;;;;;;4975264;28;20035;-84
2022/06/22 05:21:17;;;;;;;4.25;1.75;;;;;;;;;;4993024;28;20044;-84
2022/06/22 05:23:46;;;;;;;2.67;1.38;;;;;;;;;;5008672;28;20030;-84
2022/06/22 05:26:12;;;;;;;4.13;1.65;;;;;;;;;;4988618;28;20037;-84
2022/06/22 05:28:40;;;;;;;3.85;1.40;;;;;;;;;;5008714;28;20118;-84
2022/06/22 05:31:06;;;;;;;;;;;;;;;;;;4971915;28;20121;-83
2022/06/22 05:33:33;;;;;;;3.38;1.20;;;;;;;;;;4982082;28;19920;-83
2022/06/22 05:36:06;;;;;;;3.90;1.90;;;;;;;;;;5006523;28;20448;-84
2022/06/22 05:38:36;;;;;;;4.28;1.42;;;;;;;;;;4985408;28;20093;-86
2022/06/22 05:41:04;;;;;;;2.97;1.60;;;;;;;;;;4961724;28;20048;-86
2022/06/22 05:43:32;;;;;;;2.25;1.23;;;;;;;;;;4989958;28;20392;-81
2022/06/22 05:46:02;;;;;;;2.58;1.30;;;;;;;;;;4995741;28;20096;-81
2022/06/22 05:48:29;;;;;;;2.60;1.10;;;;;;;;;;4978887;28;20049;-82
2022/06/22 05:51:25;;;;;;;3.42;1.10;;;;;;;;;;4993431;28;20066;-82
2022/06/22 05:54:12;;;;;;;2.47;1.15;;;;;;;;;;5012201;28;20030;-82
2022/06/22 05:56:47;;;;;;;2.13;0.90;;;;;;;;;;5001895;28;20042;-81
2022/06/22 05:59:45;;;;;;;3.15;0.88;;;;;;;;;;4993173;28;20432;-81
2022/06/22 06:02:24;;;;;;;3.20;1.55;;;;;;;;;;4983881;28;20039;-80
2022/06/22 06:04:52;;;;;;;2.83;1.20;;;;;;;;;;4994409;28;20064;-81
2022/06/22 06:07:41;;;;;;;2.00;0.90;;;;;;;;;;5008633;28;20041;-81
2022/06/22 06:10:37;;;;;;;4.95;1.08;;;;;;;;;;4997342;28;20133;-81
2022/06/22 06:13:27;;;;;;;3.22;0.90;;;;;;;;;;4997619;28;20033;-81
2022/06/22 06:15:59;;;;;;;3.55;1.10;;;;;;;;;;5014001;28;20050;-81
2022/06/22 06:18:30;;;;;;;3.35;1.10;;;;;;;;;;5020841;28;20455;-81
2022/06/22 06:21:09;;;;;;;3.10;1.17;;;;;;;;;;4991944;28;20044;-81
2022/06/22 06:23:45;;;;;;;2.42;1.05;;;;;;;;;;4993852;28;20041;-81
2022/06/22 06:29:15;;;;;;;2.38;0.90;;;;;;;;;;4994650;28;20080;-81
2022/06/22 06:31:55;;;;;;;2.10;0.80;;;;;;;;;;4973916;28;20528;-81
2022/06/22 06:34:26;;;;;;;3.40;1.00;;;;;;;;;;5003043;28;20042;-81
2022/06/22 06:37:00;;;;;;;2.85;1.10;;;;;;;;;;4962799;28;20034;-81
2022/06/22 06:39:28;;;;;;;1.70;0.60;;;;;;;;;;5007870;28;20346;-80
2022/06/22 06:42:03;;;;;;;2.83;0.93;;;;;;;;;;5014142;28;20890;-80
2022/06/22 06:44:36;;;;;;;3.22;1.05;;;;;;;;;;5000603;28;20054;-80
2022/06/22 06:47:05;;;;;;;1.95;0.60;;;;;;;;;;4988318;28;20030;-81
2022/06/22 06:49:39;;;;;;;1.73;0.60;;;;;;;;;;5004105;28;20477;-81
2022/06/22 06:52:14;;;;;;;2.55;1.00;;;;;;;;;;4955358;28;20392;-81
2022/06/22 06:54:47;;;;;;;1.67;0.65;;;;;;;;;;4969721;28;20038;-81
2022/06/22 06:57:16;;;;;;;2.38;0.88;;;;;;;;;;4990342;28;20038;-81
2022/06/22 06:59:44;;;;;;;1.20;0.60;;;;;;;;;;4984157;28;20038;-80
2022/06/22 07:02:35;;;;;;;1.52;0.52;;;;;;;;;;4982637;28;20030;-81
2022/06/22 07:05:04;;;;;;;3.72;0.90;;;;;;;;;;4992763;28;20045;-81
2022/06/22 07:07:57;;;;;;;2.22;0.60;;;;;;;;;;4966099;28;20088;-81
2022/06/22 07:10:39;;;;;;;1.17;0.38;;;;;;;;;;5007772;28;20516;-81
2022/06/22 07:13:13;;;;;;;2.38;0.60;;;;;;;;;;5006086;28;20037;-81
2022/06/22 07:15:41;;;;;;;1.45;0.40;;;;;;;;;;4991796;28;20065;-83
2022/06/22 07:18:30;;;;;;;1.25;0.50;;;;;;;;;;4992654;28;20046;-82
2022/06/22 07:21:15;;;;;;;1.35;0.47;;;;;;;;;;4990255;28;20457;-81
2022/06/22 07:24:02;;;;;;;2.67;0.60;;;;;;;;;;4990791;28;20041;-81
2022/06/22 07:26:36;;;;;;;1.92;0.50;;;;;;;;;;4990817;28;20061;-81
2022/06/22 07:29:28;;;;;;;1.92;0.60;;;;;;;;;;4988292;28;20045;-81
2022/06/22 07:32:43;;;;;;;2.00;0.60;;;;;;;;;;4959146;28;20085;-82
2022/06/22 07:35:40;;;;;;;2.58;0.80;;;;;;;;;;4983887;28;20381;-81
2022/06/22 07:38:29;;;;;;;1.65;0.60;;;;;;;;;;4983976;28;20384;-81
2022/06/22 07:43:39;;;;;;;2.58;0.57;;;;;;;;;;4986079;28;20048;-82
2022/06/22 07:46:07;;;;;;;1.63;0.70;;;;;;;;;;4986620;28;20046;-81
2022/06/22 07:48:37;;;;;;;1.98;0.68;;;;;;;;;;4975324;28;20138;-82
2022/06/22 07:51:05;;;;;;;2.80;0.80;;;;;;;;;;4954258;28;20545;-83
2022/06/22 07:53:30;;;;;;;2.17;0.65;;;;;;;;;;4954200;28;20105;-83
2022/06/22 07:56:15;;;;;;;2.05;0.57;;;;;;;;;;4966969;28;20038;-83
2022/06/22 07:58:54;;;;;;;1.63;0.43;;;;;;;;;;4965806;28;20062;-81
2022/06/22 08:01:29;;;;;;;1.90;0.40;;;;;;;;;;4966042;28;20100;-82
2022/06/22 08:04:26;;;;;;;1.73;0.40;;;;;;;;;;4970925;28;20451;-82
2022/06/22 08:07:05;;;;;;;2.88;0.60;;;;;;;;;;4949808;28;20118;-82
2022/06/22 08:10:02;;;;;;;0.88;0.40;;;;;;;;;;4971997;28;20486;-82
2022/06/22 08:12:33;;;;;;;2.50;0.63;;;;;;;;;;4956350;28;20039;-83
2022/06/22 08:15:00;;;;;;;1.35;0.40;;;;;;;;;;4942763;28;20102;-83
2022/06/22 08:17:49;;;;;;;1.33;0.40;;;;;;;;;;4924994;28;20042;-84
2022/06/22 08:20:20;;;;;;;2.33;0.52;;;;;;;;;;4946766;28;20035;-83
2022/06/22 08:22:48;;;;;;;3.03;0.70;;;;;;;;;;4966720;28;20529;-84
2022/06/22 08:25:14;;;;;;;2.60;0.50;;;;;;;;;;4948287;28;20122;-81
2022/06/22 08:27:40;;;;;;;1.73;0.60;;;;;;;;;;4944849;28;20039;-82
2022/06/22 08:30:06;;;;;;;2.13;0.60;;;;;;;;;;4952020;28;20284;-84
2022/06/22 08:32:34;;;;;;;1.50;0.50;;;;;;;;;;4963604;28;20045;-85
2022/06/22 08:35:24;;;;;;;1.90;0.50;;;;;;;;;;4978366;28;20042;-84
2022/06/22 08:37:59;;;;;;;1.70;0.43;;;;;;;;;;4938081;28;20513;-84
2022/06/22 08:40:33;;;;;;;1.77;0.57;;;;;;;;;;4954727;28;20077;-83
2022/06/22 08:43:06;;;;;;;2.65;0.50;;;;;;;;;;4967694;28;20046;-85
2022/06/22 08:45:57;;;;;;;2.10;0.52;;;;;;;;;;4971229;28;20536;-84
2022/06/22 08:48:45;;;;;;;0.85;0.30;;;;;;;;;;4973465;28;20056;-84
2022/06/22 08:51:14;;;;;;;2.17;0.50;;;;;;;;;;4994671;28;20045;-84
2022/06/22 08:53:54;;;;;;;3.03;0.50;;;;;;;;;;4990189;28;20153;-82
2022/06/22 08:56:38;;;;;;;1.63;0.50;;;;;;;;;;5009160;28;20459;-84
2022/06/22 08:59:32;;;;;;;2.58;0.50;;;;;;;;;;5003736;28;20034;-85
2022/06/22 09:02:26;;;;;;;1.80;0.50;;;;;;;;;;4990662;28;20561;-85
2022/06/22 09:05:03;;;;;;;2.25;1.10;;;;;;;;;;5004945;28;20029;-86
2022/06/22 09:07:45;;;;;;;3.72;0.70;;;;;;;;;;5005897;28;20037;-83
2022/06/22 09:10:37;;;;;;;1.60;0.63;;;;;;;;;;5004294;28;20896;-84
2022/06/22 09:13:21;;;;;;;1.52;0.40;;;;;;;;;;5004918;28;20760;-85
2022/06/22 09:16:13;;;;;;;1.98;0.40;;;;;;;;;;5004473;28;20042;-84
2022/06/22 09:18:47;;;;;;;1.88;0.55;;;;;;;;;;4988997;28;20068;-85
2022/06/22 09:21:34;;;;;;;1.10;0.30;;;;;;;;;;5008116;28;20045;-85
2022/06/22 09:24:04;;;;;;;2.25;0.40;;;;;;;;;;5012337;28;20116;-85
2022/06/22 09:26:51;;;;;;;1.48;0.40;;;;;;;;;;5010935;28;20038;-84
2022/06/22 09:29:56;;;;;;;2.45;0.40;;;;;;;;;;5009964;28;20042;-83
2022/06/22 09:32:21;;;;;;;1.67;0.40;;;;;;;;;;4969129;28;20042;-84
2022/06/22 09:35:25;;;;;;;1.83;0.20;;;;;;;;;;5007815;28;20045;-86
2022/06/22 09:38:02;;;;;;;0.80;0.30;;;;;;;;;;4992198;28;20100;-85
2022/06/22 09:41:05;;;;;;;1.02;0.30;;;;;;;;;;5010821;28;20132;-82
2022/06/22 09:44:01;;;;;;;2.20;0.40;;;;;;;;;;5007528;28;20089;-83
2022/06/22 09:46:38;;;;;;;1.45;0.30;;;;;;;;;;4991527;28;20079;-84
2022/06/22 09:49:41;;;;;;;0.88;0.30;;;;;;;;;;5004613;28;20416;-84
2022/06/22 09:52:26;;;;;;;1.48;0.30;;;;;;;;;;4977874;28;20521;-84
2022/06/22 09:56:20;;;;;;;1.17;0.30;;;;;;;;;;4993578;28;20039;-84
2022/06/22 09:58:38;;;;;;;0.90;0.30;;;;;;;;;;4957596;28;20046;-84
2022/06/22 10:01:08;;;;;;;1.13;0.30;;;;;;;;;;4967783;28;20525;-84
2022/06/22 10:04:01;;;;;;;0.35;0.15;;;;;;;;;;4947175;28;20054;-84
2022/06/22 10:06:31;;;;;;;1.75;0.30;;;;;;;;;;4976426;28;20043;-84
2022/06/22 10:09:29;;;;;;;1.00;0.30;;;;;;;;;;4973684;28;20053;-84
2022/06/22 10:12:45;;;;;;;1.33;0.30;;;;;;;;;;4970483;28;20046;-84
2022/06/22 10:15:24;;;;;;;2.47;0.30;;;;;;;;;;4904676;29;20523;-84
2022/06/22 10:18:04;;;;;;;1.08;0.30;;;;;;;;;;4967182;28;20043;-85
2022/06/22 10:20:51;;;;;;;0.85;0.30;;;;;;;;;;4982696;28;20049;-82
2022/06/22 10:23:24;;;;;;;2.45;0.77;;;;;;;;;;5001764;28;20070;-84
2022/06/22 10:26:08;;;;;;;0.70;0.20;;;;;;;;;;4969674;28;20114;-85
2022/06/22 10:29:10;;;;;;;1.75;0.30;;;;;;;;;;4977753;28;20035;-84
2022/06/22 10:32:17;;;;;;;0.47;0.10;;;;;;;;;;4973277;28;20035;-84
2022/06/22 10:34:48;;;;;;;0.47;0.20;;;;;;;;;;4928015;29;20050;-84
2022/06/22 10:37:28;;;;;;;1.30;0.30;;;;;;;;;;4956460;28;20390;-84
2022/06/22 10:39:56;;;;;;;0.20;0.10;;;;;;;;;;4998830;28;20581;-83
2022/06/22 10:45:48;;;;;;;1.02;0.25;;;;;;;;;;4988140;28;20045;-84
2022/06/22 10:48:44;;;;;;;1.33;0.20;;;;;;;;;;4997917;28;20046;-84
2022/06/22 10:51:29;;;;;;;1.45;0.30;;;;;;;;;;5005816;28;20061;-84
2022/06/22 10:54:13;;;;;;;1.83;0.30;;;;;;;;;;4992664;28;20384;-82
2022/06/22 10:57:05;;;;;;;2.13;0.20;;;;;;;;;;4989916;28;20101;-83
2022/06/22 11:00:14;;;;;;;1.45;0.28;;;;;;;;;;5005808;28;20042;-83
2022/06/22 11:02:57;;;;;;;1.25;0.38;;;;;;;;;;4961009;28;20446;-84
2022/06/22 11:06:20;;;;;;;0.88;0.20;;;;;;;;;;4990039;28;20128;-84
2022/06/22 11:09:03;;;;;;;0.98;0.30;;;;;;;;;;4902380;29;20159;-85
2022/06/22 11:11:52;;;;;;;0.77;0.30;;;;;;;;;;4909772;29;20474;-84
2022/06/22 11:14:58;;;;;;;0.95;0.30;;;;;;;;;;4995139;28;20037;-83
2022/06/22 11:17:24;;;;;;;0.85;0.20;;;;;;;;;;4971276;28;20042;-84
2022/06/22 11:20:13;;;;;;;0.97;0.33;;;;;;;;;;5007790;28;20064;-83
2022/06/22 11:22:42;;;;;;;1.20;0.30;;;;;;;;;;5006670;28;20383;-84
2022/06/22 11:25:08;;;;;;;1.83;0.63;;;;;;;;;;5014698;28;20034;-84
2022/06/22 11:30:56;;;;;;;1.55;0.40;;;;;;;;;;5005265;28;20072;-83
2022/06/22 11:33:37;;;;;;;1.30;0.28;;;;;;;;;;5007625;28;20042;-82
2022/06/22 11:36:15;;;;;;;1.20;0.30;;;;;;;;;;4978457;28;20043;-83
2022/06/22 11:38:49;;;;;;;1.92;0.40;;;;;;;;;;5004442;28;20134;-84
2022/06/22 11:41:41;;;;;;;1.50;0.40;;;;;;;;;;4991757;28;20035;-85
2022/06/22 11:44:12;;;;;;;1.52;0.30;;;;;;;;;;4974376;28;20165;-83
2022/06/22 11:46:40;;;;;;;1.80;0.43;;;;;;;;;;4983958;28;20592;-83
2022/06/22 11:49:43;;;;;;;1.77;0.60;;;;;;;;;;4967450;28;20042;-82
2022/06/22 11:52:20;;;;;;;1.77;0.40;;;;;;;;;;4989667;28;20493;-84
2022/06/22 11:55:10;;;;;;;1.80;0.50;;;;;;;;;;4983603;28;20035;-85
2022/06/22 11:57:57;;;;;;;1.42;0.40;;;;;;;;;;4973974;28;20038;-82
2022/06/22 12:01:15;;;;;;;1.90;0.50;;;;;;;;;;4989547;28;20034;-83
2022/06/22 12:03:46;;;;;;;1.08;0.30;;;;;;;;;;4882358;29;20427;-84
2022/06/22 12:06:47;;;;;;;1.92;0.32;;;;;;;;;;4901052;29;20039;-82
2022/06/22 12:09:22;;;;;;;1.80;0.45;;;;;;;;;;4961484;28;20037;-85
2022/06/22 12:12:15;;;;;;;1.58;0.57;;;;;;;;;;4987176;28;20032;-84
2022/06/22 12:15:04;;;;;;;1.15;0.40;;;;;;;;;;4986834;28;20558;-85
2022/06/22 12:17:42;;;;;;;0.90;0.30;;;;;;;;;;4992353;28;20038;-84
2022/06/22 12:20:37;;;;;;;2.17;0.50;;;;;;;;;;5001289;28;20034;-83
2022/06/22 12:23:14;;;;;;;0.88;0.35;;;;;;;;;;4920696;28;20036;-84
2022/06/22 12:25:49;;;;;;;1.17;0.40;;;;;;;;;;4988652;28;20046;-84
2022/06/22 12:28:38;;;;;;;0.63;0.20;;;;;;;;;;4987771;28;20046;-84
2022/06/22 12:31:13;;;;;;;0.73;0.20;;;;;;;;;;4987369;28;20532;-85
2022/06/22 12:33:51;;;;;;;0.52;0.17;;;;;;;;;;4986977;28;20573;-83
2022/06/22 12:36:21;;;;;;;1.60;0.40;;;;;;;;;;4963322;28;20035;-84
2022/06/22 12:38:51;;;;;;;1.33;0.40;;;;;;;;;;4936467;28;20034;-83
2022/06/22 12:41:28;;;;;;;2.33;0.30;;;;;;;;;;4955943;28;20038;-84
2022/06/22 12:43:59;;;;;;;1.30;0.30;;;;;;;;;;4976569;28;20041;-84
2022/06/22 12:46:31;;;;;;;0.80;0.30;;;;;;;;;;5001945;28;20116;-83
2022/06/22 12:49:04;;;;;;;1.38;0.30;;;;;;;;;;4973063;28;20042;-84
2022/06/22 12:52:06;;;;;;;3.15;0.45;;;;;;;;;;4966319;28;20489;-83
2022/06/22 12:54:39;;;;;;;1.25;0.30;;;;;;;;;;4928510;28;20030;-83
2022/06/22 12:57:09;;;;;;;0.52;0.20;;;;;;;;;;4958159;28;20050;-84
2022/06/22 13:00:10;;;;;;;1.55;0.40;;;;;;;;;;4975325;28;20486;-83
2022/06/22 13:02:36;;;;;;;1.63;0.40;;;;;;;;;;4933604;28;20573;-85
2022/06/22 13:05:06;;;;;;;1.35;0.40;;;;;;;;;;4973984;28;20069;-84
2022/06/22 13:07:54;;;;;;;1.20;0.30;;;;;;;;;;4976918;28;20363;-86
2022/06/22 13:10:25;;;;;;;1.00;0.40;;;;;;;;;;4968039;28;20037;-83
2022/06/22 13:13:01;;;;;;;0.60;0.30;;;;;;;;;;4986277;28;20045;-83
2022/06/22 13:15:41;;;;;;;1.40;0.30;;;;;;;;;;4956951;28;20039;-85
2022/06/22 13:18:24;;;;;;;2.22;0.50;;;;;;;;;;4956094;28;20043;-85
2022/06/22 13:20:55;;;;;;;1.15;0.38;;;;;;;;;;4985461;28;20033;-86
2022/06/22 13:23:54;;;;;;;0.98;0.38;;;;;;;;;;4957720;28;20185;-85
2022/06/22 13:26:29;;;;;;;1.75;0.45;;;;;;;;;;4947914;28;20047;-86
2022/06/22 13:29:23;;;;;;;0.95;0.32;;;;;;;;;;4971005;28;20046;-87
2022/06/22 13:31:52;;;;;;;2.03;0.50;;;;;;;;;;4974740;28;20112;-85
2022/06/22 13:34:23;;;;;;;2.13;0.65;;;;;;;;;;4972224;28;20101;-85
2022/06/22 13:37:06;;;;;;;0.60;0.30;;;;;;;;;;4956566;28;20039;-87
2022/06/22 13:40:13;;;;;;;1.88;0.50;;;;;;;;;;4966030;28;20031;-86
2022/06/22 13:42:55;;;;;;;1.15;0.50;;;;;;;;;;4958547;28;20039;-86
2022/06/22 13:46:02;;;;;;;1.10;0.35;;;;;;;;;;4973478;28;20039;-85
2022/06/22 13:48:47;;;;;;;0.82;0.30;;;;;;;;;;4957527;28;20125;-87
2022/06/22 13:51:44;;;;;;;0.73;0.30;;;;;;;;;;4959210;28;20047;-86
2022/06/22 13:54:31;;;;;;;0.75;0.40;;;;;;;;;;4959153;28;20504;-84
2022/06/22 13:57:09;;;;;;;2.40;0.40;;;;;;;;;;4983361;28;20065;-82
2022/06/22 13:59:54;;;;;;;0.38;0.20;;;;;;;;;;4969488;28;20041;-82
2022/06/22 14:02:31;;;;;;;0.75;0.30;;;;;;;;;;4957695;28;20054;-81
2022/06/22 14:05:11;;;;;;;0.93;0.38;;;;;;;;;;4951304;28;20105;-81
2022/06/22 14:07:56;;;;;;;2.45;0.70;;;;;;;;;;4948281;28;20035;-81
2022/06/22 14:10:44;;;;;;;4.28;0.40;;;;;;;;;;4956320;28;20501;-80
2022/06/22 14:13:37;;;;;;;1.17;0.40;;;;;;;;;;4954316;28;20125;-81
2022/06/22 14:16:21;;;;;;;1.05;0.35;;;;;;;;;;4975910;28;20049;-90
2022/06/22 14:19:24;;;;;;;0.57;0.20;;;;;;;;;;4942613;28;20617;-90
2022/06/22 14:22:01;;;;;;;0.98;0.28;;;;;;;;;;4877375;28;20141;-89
2022/06/22 14:24:30;;;;;;;1.90;0.40;;;;;;;;;;4932048;28;20384;-88
2022/06/22 14:27:37;;;;;;;1.98;0.50;;;;;;;;;;4950246;28;20049;-90
2022/06/22 14:30:21;;;;;;;1.13;0.40;;;;;;;;;;4917450;28;20458;-91
2022/06/22 14:33:05;;;;;;;1.25;0.55;;;;;;;;;;4915125;28;20458;-90
2022/06/22 14:36:00;;;;;;;0.60;0.30;;;;;;;;;;4930839;28;20043;-88
2022/06/22 14:38:31;;;;;;;1.08;0.30;;;;;;;;;;4937081;28;20073;-89
2022/06/22 14:41:11;;;;;;;1.20;0.40;;;;;;;;;;4976065;28;20097;-89
2022/06/22 14:43:44;;;;;;;0.95;0.38;;;;;;;;;;4959137;28;20049;-89
2022/06/22 14:46:18;;;;;;;1.00;0.40;;;;;;;;;;4942759;28;20042;-89
2022/06/22 14:48:54;;;;;;;0.80;0.40;;;;;;;;;;4970862;28;20050;-88
2022/06/22 14:51:31;;;;;;;1.95;0.73;;;;;;;;;;4952090;28;20521;-89
2022/06/22 14:54:11;;;;;;;1.17;0.40;;;;;;;;;;4973051;28;21086;-90
2022/06/22 14:56:41;;;;;;;0.70;0.30;;;;;;;;;;4931429;28;20133;-88
2022/06/22 15:00:14;;;;;;;1.08;0.43;;;;;;;;;;4942605;28;20038;-88
2022/06/22 15:02:42;;;;;;;1.60;0.50;;;;;;;;;;4856919;29;20048;-88
2022/06/22 15:05:23;;;;;;;1.13;0.43;;;;;;;;;;4874548;29;20606;-89
2022/06/22 15:08:27;;;;;;;0.75;0.40;;;;;;;;;;4946426;28;20513;-89
2022/06/22 15:12:56;;;;;;;1.70;0.47;;;;;;;;;;4936005;28;20510;-89
2022/06/22 15:13:53;;;;;;;1.10;0.45;;;;;;;;;;4953577;28;20509;-89
2022/06/22 15:16:22;;;;;;;1.58;0.40;;;;;;;;;;4926809;28;20114;-88
2022/06/22 15:18:54;;;;;;;1.77;0.60;;;;;;;;;;4942942;28;20049;-89
2022/06/22 15:21:38;;;;;;;1.42;0.43;;;;;;;;;;4917019;28;20559;-89
2022/06/22 15:24:23;;;;;;;1.17;0.50;;;;;;;;;;4986046;28;20169;-89
2022/06/22 15:27:18;;;;;;;0.93;0.43;;;;;;;;;;4965532;28;20110;-90
2022/06/22 15:30:11;;;;;;;2.17;0.50;;;;;;;;;;4927000;28;20130;-88
2022/06/22 15:33:05;;;;;;;1.25;0.60;;;;;;;;;;4945683;28;20046;-88
2022/06/22 15:35:55;;;;;;;2.33;0.52;;;;;;;;;;4964516;28;20514;-89
2022/06/22 15:38:39;;;;;;;1.42;0.47;;;;;;;;;;4934260;28;20063;-88
2022/06/22 15:41:31;;;;;;;1.30;0.57;;;;;;;;;;4925871;28;20374;-89
2022/06/22 15:44:18;;;;;;;2.80;0.60;;;;;;;;;;4942302;28;20125;-88
2022/06/22 15:46:49;;;;;;;1.60;0.40;;;;;;;;;;4935915;28;20454;-88
2022/06/22 15:50:09;;;;;;;1.23;0.45;;;;;;;;;;4939789;28;20390;-88
2022/06/22 15:52:53;;;;;;;1.45;0.60;;;;;;;;;;4961296;28;20061;-88
2022/06/22 15:55:58;;;;;;;2.05;0.65;;;;;;;;;;4960247;28;20062;-89
2022/06/22 15:58:47;;;;;;;2.03;0.43;;;;;;;;;;4961686;28;20428;-90
2022/06/22 16:01:22;;;;;;;1.65;0.60;;;;;;;;;;4920206;28;20124;-91
2022/06/22 16:04:27;;;;;;;1.63;0.60;;;;;;;;;;4938056;28;20038;-90
2022/06/22 16:07:32;;;;;;;1.25;0.40;;;;;;;;;;4952382;28;20481;-90
2022/06/22 16:10:14;;;;;;;2.00;0.88;;;;;;;;;;4963065;28;20049;-90
2022/06/22 16:16:03;;;;;;;1.25;0.43;;;;;;;;;;4946025;28;20523;-89
2022/06/22 16:18:49;;;;;;;;;;;;;;;;;;;;;
2022/06/22 17:25:21;;;;;;;;;;;;;;;;;;;;;
2022/06/22 17:31:44;;;;;;;;;;;;;;;;;;;;;
2022/06/22 17:34:48;;;;;;;2.17;0.52;;;;;;;;;;4892159;29;20036;-86
2022/06/22 17:41:13;;;;;;;1.27;0.50;;;;;;;;;;4893357;29;20046;-85
2022/06/22 17:43:46;;;;;;;1.48;0.63;;;;;;;;;;4938527;29;20102;-85
2022/06/22 17:46:14;;;;;;;2.55;0.68;;;;;;;;;;4938327;29;20046;-86
2022/06/22 17:48:48;;;;;;;1.52;0.50;;;;;;;;;;4918421;29;20598;-86
2022/06/22 17:51:27;;;;;;;2.28;0.70;;;;;;;;;;4957979;28;20050;-87
2022/06/22 17:53:53;;;;;;;2.20;0.70;;;;;;;;;;4966636;28;20094;-86
2022/06/22 17:56:22;;;;;;;1.25;0.50;;;;;;;;;;4977512;28;20126;-86
2022/06/22 17:58:56;;;;;;;2.45;0.60;;;;;;;;;;4967544;28;20035;-86
2022/06/22 18:01:43;;;;;;;1.00;0.50;;;;;;;;;;4947620;28;20042;-85
2022/06/22 18:04:10;;;;;;;;;;;;;;;;;;4963497;28;20063;-86
2022/06/22 18:06:38;;;;;;;1.30;0.50;;;;;;;;;;4988801;28;20288;-87
2022/06/22 18:09:24;;;;;;;1.85;0.70;;;;;;;;;;4971045;28;20608;-87
2022/06/22 18:11:53;;;;;;;2.73;0.70;;;;;;;;;;4965398;28;20592;-86
2022/06/22 18:14:37;;;;;;;1.50;0.50;;;;;;;;;;4961575;28;20038;-86
2022/06/22 18:17:12;;;;;;;1.08;0.50;;;;;;;;;;4968637;28;20038;-87
2022/06/22 18:19:46;;;;;;;1.95;0.52;;;;;;;;;;4950463;28;20497;-86
2022/06/22 18:22:17;;;;;;;1.30;0.50;;;;;;;;;;4966708;28;20503;-87
2022/06/22 18:24:55;;;;;;;1.52;0.68;;;;;;;;;;4969003;28;20089;-86